aviador You're here:

CYPX Decoded Metar

PUVIRGNITUQ in QC, CANADA
Report Time2017-03-24 00:01:00
UTC Time2017-03-24 00:08:11
Flight Rules ifr IFR
Wind170° at 16 kt
W.Decomp.*RWY 19: 16.0 kt HW 0.3 kt RCW
W.Rank170° ranks 25
Current wind is above 170° avg. (10.5)
Visibility3621 m
Phenomena:Light Snow
Clouds:Overcast 046 Hf
Expected CloudBase > 800 ft AGL from Temp-Dew spread
Ceiling4,600 ft
Temp-15°C (ISA -30)
Dew Point-17°C (85% RH)
AAT-24.2°C
QNH1009 hPa
Density Alt-3,543 ft
Elevation75 ft
Report Wrong Elevation
Raw Report
SPECI CYPX 240001Z AUTO 17016KT 2 1/4SM -SN OVC046 M15/M17 A2979 RMK
PRESFR SLP093=

Extra information for CYPX:More info

Metar Taf Metar & Taf Last 4 Metars F.Rules Stats Wind Profile Meteogram Temp Stats Airport Information Weather charts Add Link Nearby VenuesMetar ALERT Operation Metar Decoded Social comments